sensor_id;sensor_type;location;lat;lon;timestamp;temperature;humidity
34815;DHT22;21030;53.912;15.214;2023-02-15T00:01:51;32.80;19.50
34815;DHT22;21030;53.912;15.214;2023-02-15T00:04:22;33.00;19.40
34815;DHT22;21030;53.912;15.214;2023-02-15T00:06:50;33.10;19.30
34815;DHT22;21030;53.912;15.214;2023-02-15T00:09:19;33.20;19.30
34815;DHT22;21030;53.912;15.214;2023-02-15T00:11:47;33.20;19.20
34815;DHT22;21030;53.912;15.214;2023-02-15T00:14:19;33.30;19.20
34815;DHT22;21030;53.912;15.214;2023-02-15T00:16:48;33.10;19.10
34815;DHT22;21030;53.912;15.214;2023-02-15T00:19:17;33.10;19.20
34815;DHT22;21030;53.912;15.214;2023-02-15T00:21:48;33.10;19.20
34815;DHT22;21030;53.912;15.214;2023-02-15T00:24:17;33.10;19.20
34815;DHT22;21030;53.912;15.214;2023-02-15T00:26:46;32.90;19.40
34815;DHT22;21030;53.912;15.214;2023-02-15T00:29:15;33.00;19.30
34815;DHT22;21030;53.912;15.214;2023-02-15T00:31:42;33.20;19.30
34815;DHT22;21030;53.912;15.214;2023-02-15T00:34:18;33.30;19.20
34815;DHT22;21030;53.912;15.214;2023-02-15T00:36:45;33.30;19.10
34815;DHT22;21030;53.912;15.214;2023-02-15T00:39:13;33.20;19.10
34815;DHT22;21030;53.912;15.214;2023-02-15T00:41:40;33.00;19.20
34815;DHT22;21030;53.912;15.214;2023-02-15T00:44:07;32.80;19.30
34815;DHT22;21030;53.912;15.214;2023-02-15T00:46:35;32.80;19.30
34815;DHT22;21030;53.912;15.214;2023-02-15T00:49:02;32.80;19.30
34815;DHT22;21030;53.912;15.214;2023-02-15T00:51:30;32.30;19.40
34815;DHT22;21030;53.912;15.214;2023-02-15T00:53:57;32.60;19.50
34815;DHT22;21030;53.912;15.214;2023-02-15T00:56:25;32.80;19.40
34815;DHT22;21030;53.912;15.214;2023-02-15T00:58:52;32.80;19.40
34815;DHT22;21030;53.912;15.214;2023-02-15T01:01:20;32.70;19.30
34815;DHT22;21030;53.912;15.214;2023-02-15T01:03:48;32.50;19.30
34815;DHT22;21030;53.912;15.214;2023-02-15T01:06:16;32.10;19.40
34815;DHT22;21030;53.912;15.214;2023-02-15T01:08:46;32.30;19.50
34815;DHT22;21030;53.912;15.214;2023-02-15T01:11:17;32.30;19.50
34815;DHT22;21030;53.912;15.214;2023-02-15T01:13:54;31.60;19.70
34815;DHT22;21030;53.912;15.214;2023-02-15T01:16:22;31.80;19.80
34815;DHT22;21030;53.912;15.214;2023-02-15T01:18:50;31.70;19.80
34815;DHT22;21030;53.912;15.214;2023-02-15T01:21:19;31.40;19.80
34815;DHT22;21030;53.912;15.214;2023-02-15T01:23:47;31.20;20.00
34815;DHT22;21030;53.912;15.214;2023-02-15T01:26:15;31.40;20.00
34815;DHT22;21030;53.912;15.214;2023-02-15T01:28:43;31.20;20.00
34815;DHT22;21030;53.912;15.214;2023-02-15T01:31:16;31.20;20.10
34815;DHT22;21030;53.912;15.214;2023-02-15T01:33:45;31.60;20.00
34815;DHT22;21030;53.912;15.214;2023-02-15T01:36:13;31.60;19.80
34815;DHT22;21030;53.912;15.214;2023-02-15T01:38:40;31.30;19.80
34815;DHT22;21030;53.912;15.214;2023-02-15T01:41:09;30.80;19.90
34815;DHT22;21030;53.912;15.214;2023-02-15T01:44:00;30.50;20.30
34815;DHT22;21030;53.912;15.214;2023-02-15T01:46:37;30.50;20.50
34815;DHT22;21030;53.912;15.214;2023-02-15T01:49:13;30.30;20.10
34815;DHT22;21030;53.912;15.214;2023-02-15T01:51:43;30.20;20.40
34815;DHT22;21030;53.912;15.214;2023-02-15T01:54:25;30.70;20.30
34815;DHT22;21030;53.912;15.214;2023-02-15T01:57:03;30.90;20.00
34815;DHT22;21030;53.912;15.214;2023-02-15T01:59:33;31.10;20.00
34815;DHT22;21030;53.912;15.214;2023-02-15T02:02:04;31.20;19.90
34815;DHT22;21030;53.912;15.214;2023-02-15T02:04:40;31.00;20.00
34815;DHT22;21030;53.912;15.214;2023-02-15T02:07:09;31.10;19.90
34815;DHT22;21030;53.912;15.214;2023-02-15T02:09:38;31.10;19.90
34815;DHT22;21030;53.912;15.214;2023-02-15T02:12:08;31.40;19.90
34815;DHT22;21030;53.912;15.214;2023-02-15T02:14:36;31.30;19.80
34815;DHT22;21030;53.912;15.214;2023-02-15T02:20:16;31.40;19.80
34815;DHT22;21030;53.912;15.214;2023-02-15T02:23:15;31.30;19.70
34815;DHT22;21030;53.912;15.214;2023-02-15T02:26:07;31.10;19.80
34815;DHT22;21030;53.912;15.214;2023-02-15T02:29:07;31.40;19.80
34815;DHT22;21030;53.912;15.214;2023-02-15T02:34:23;31.60;19.50
34815;DHT22;21030;53.912;15.214;2023-02-15T02:37:00;30.90;19.70
34815;DHT22;21030;53.912;15.214;2023-02-15T02:47:50;30.20;20.30
34815;DHT22;21030;53.912;15.214;2023-02-15T02:50:27;30.60;20.10
34815;DHT22;21030;53.912;15.214;2023-02-15T02:52:56;30.50;20.10
34815;DHT22;21030;53.912;15.214;2023-02-15T02:58:11;30.50;20.00
34815;DHT22;21030;53.912;15.214;2023-02-15T03:00:48;30.90;20.00
34815;DHT22;21030;53.912;15.214;2023-02-15T03:03:23;30.50;20.00
34815;DHT22;21030;53.912;15.214;2023-02-15T03:05:55;30.60;20.10
34815;DHT22;21030;53.912;15.214;2023-02-15T03:08:26;30.60;20.10
34815;DHT22;21030;53.912;15.214;2023-02-15T03:10:58;30.60;19.90
34815;DHT22;21030;53.912;15.214;2023-02-15T03:13:27;30.60;20.00
34815;DHT22;21030;53.912;15.214;2023-02-15T03:15:55;30.40;19.90
34815;DHT22;21030;53.912;15.214;2023-02-15T03:18:47;30.50;19.90
34815;DHT22;21030;53.912;15.214;2023-02-15T03:21:31;30.70;19.90
34815;DHT22;21030;53.912;15.214;2023-02-15T03:24:14;30.90;19.90
34815;DHT22;21030;53.912;15.214;2023-02-15T03:26:45;31.00;19.70
34815;DHT22;21030;53.912;15.214;2023-02-15T03:29:15;31.00;19.80
34815;DHT22;21030;53.912;15.214;2023-02-15T03:31:46;30.90;19.70
34815;DHT22;21030;53.912;15.214;2023-02-15T03:34:18;31.00;19.60
34815;DHT22;21030;53.912;15.214;2023-02-15T03:39:54;31.00;19.70
34815;DHT22;21030;53.912;15.214;2023-02-15T03:42:30;30.90;19.60
34815;DHT22;21030;53.912;15.214;2023-02-15T03:45:06;30.90;19.70
34815;DHT22;21030;53.912;15.214;2023-02-15T03:47:38;31.00;19.60
34815;DHT22;21030;53.912;15.214;2023-02-15T03:50:14;31.00;19.70
34815;DHT22;21030;53.912;15.214;2023-02-15T03:53:03;30.80;19.60
34815;DHT22;21030;53.912;15.214;2023-02-15T03:55:33;30.70;20.30
34815;DHT22;21030;53.912;15.214;2023-02-15T03:58:01;30.50;19.80
34815;DHT22;21030;53.912;15.214;2023-02-15T04:00:55;30.00;20.20
34815;DHT22;21030;53.912;15.214;2023-02-15T04:03:48;29.60;20.20
34815;DHT22;21030;53.912;15.214;2023-02-15T04:06:18;29.50;20.30
34815;DHT22;21030;53.912;15.214;2023-02-15T04:08:45;29.40;20.60
34815;DHT22;21030;53.912;15.214;2023-02-15T04:11:31;29.50;20.50
34815;DHT22;21030;53.912;15.214;2023-02-15T04:13:58;29.80;20.30
34815;DHT22;21030;53.912;15.214;2023-02-15T04:16:45;29.90;20.10
34815;DHT22;21030;53.912;15.214;2023-02-15T04:19:12;29.90;20.20
34815;DHT22;21030;53.912;15.214;2023-02-15T04:21:58;30.10;20.10
34815;DHT22;21030;53.912;15.214;2023-02-15T04:24:43;29.90;20.00
34815;DHT22;21030;53.912;15.214;2023-02-15T04:27:29;30.20;19.90
34815;DHT22;21030;53.912;15.214;2023-02-15T04:29:56;30.30;19.70
34815;DHT22;21030;53.912;15.214;2023-02-15T04:32:24;30.40;19.80
34815;DHT22;21030;53.912;15.214;2023-02-15T04:34:51;30.40;19.70
34815;DHT22;21030;53.912;15.214;2023-02-15T04:37:18;30.30;19.70
34815;DHT22;21030;53.912;15.214;2023-02-15T04:39:45;30.40;19.70
34815;DHT22;21030;53.912;15.214;2023-02-15T04:42:12;30.20;19.70
34815;DHT22;21030;53.912;15.214;2023-02-15T04:44:39;30.30;19.80
34815;DHT22;21030;53.912;15.214;2023-02-15T04:47:06;30.20;19.70
34815;DHT22;21030;53.912;15.214;2023-02-15T04:49:33;30.30;19.70
34815;DHT22;21030;53.912;15.214;2023-02-15T04:52:00;29.90;19.60
34815;DHT22;21030;53.912;15.214;2023-02-15T04:54:27;30.10;19.80
34815;DHT22;21030;53.912;15.214;2023-02-15T04:56:55;30.20;19.80
34815;DHT22;21030;53.912;15.214;2023-02-15T04:59:22;30.20;19.70
34815;DHT22;21030;53.912;15.214;2023-02-15T05:01:49;29.90;19.70
34815;DHT22;21030;53.912;15.214;2023-02-15T05:04:16;30.10;19.70
34815;DHT22;21030;53.912;15.214;2023-02-15T05:06:43;29.80;19.70
34815;DHT22;21030;53.912;15.214;2023-02-15T05:09:11;29.40;19.90
34815;DHT22;21030;53.912;15.214;2023-02-15T05:11:39;28.90;20.20
34815;DHT22;21030;53.912;15.214;2023-02-15T05:14:06;28.60;20.30
34815;DHT22;21030;53.912;15.214;2023-02-15T05:16:33;28.90;20.50
34815;DHT22;21030;53.912;15.214;2023-02-15T05:19:01;29.00;20.30
34815;DHT22;21030;53.912;15.214;2023-02-15T05:21:28;29.40;20.30
34815;DHT22;21030;53.912;15.214;2023-02-15T05:23:55;29.70;20.10
34815;DHT22;21030;53.912;15.214;2023-02-15T05:26:23;29.60;20.00
34815;DHT22;21030;53.912;15.214;2023-02-15T05:29:10;29.30;19.90
34815;DHT22;21030;53.912;15.214;2023-02-15T05:31:37;29.50;20.00
34815;DHT22;21030;53.912;15.214;2023-02-15T05:34:05;29.50;19.80
34815;DHT22;21030;53.912;15.214;2023-02-15T05:36:32;29.30;20.00
34815;DHT22;21030;53.912;15.214;2023-02-15T05:38:59;29.30;20.10
34815;DHT22;21030;53.912;15.214;2023-02-15T05:41:26;29.30;20.00
34815;DHT22;21030;53.912;15.214;2023-02-15T05:43:55;29.30;20.10
34815;DHT22;21030;53.912;15.214;2023-02-15T05:46:23;29.60;20.00
34815;DHT22;21030;53.912;15.214;2023-02-15T05:48:50;29.70;19.90
34815;DHT22;21030;53.912;15.214;2023-02-15T05:51:17;29.50;19.90
34815;DHT22;21030;53.912;15.214;2023-02-15T05:53:44;29.50;19.90
34815;DHT22;21030;53.912;15.214;2023-02-15T05:56:12;29.60;19.90
34815;DHT22;21030;53.912;15.214;2023-02-15T05:58:40;29.80;19.80
34815;DHT22;21030;53.912;15.214;2023-02-15T06:01:17;29.90;19.70
34815;DHT22;21030;53.912;15.214;2023-02-15T06:03:45;29.40;19.70
34815;DHT22;21030;53.912;15.214;2023-02-15T06:06:13;29.30;19.90
34815;DHT22;21030;53.912;15.214;2023-02-15T06:08:40;29.60;20.00
34815;DHT22;21030;53.912;15.214;2023-02-15T06:11:07;29.80;19.80
34815;DHT22;21030;53.912;15.214;2023-02-15T06:13:35;29.80;19.70
34815;DHT22;21030;53.912;15.214;2023-02-15T06:16:05;30.00;19.60
34815;DHT22;21030;53.912;15.214;2023-02-15T06:18:33;30.00;19.50
34815;DHT22;21030;53.912;15.214;2023-02-15T06:21:00;30.00;19.60
34815;DHT22;21030;53.912;15.214;2023-02-15T06:23:27;29.90;19.60
34815;DHT22;21030;53.912;15.214;2023-02-15T06:25:55;29.90;19.70
34815;DHT22;21030;53.912;15.214;2023-02-15T06:28:22;30.00;19.60
34815;DHT22;21030;53.912;15.214;2023-02-15T06:30:49;30.20;19.60
34815;DHT22;21030;53.912;15.214;2023-02-15T06:33:16;30.30;19.50
34815;DHT22;21030;53.912;15.214;2023-02-15T06:35:44;30.20;19.50
34815;DHT22;21030;53.912;15.214;2023-02-15T06:38:12;30.20;19.50
34815;DHT22;21030;53.912;15.214;2023-02-15T06:40:39;29.90;19.50
34815;DHT22;21030;53.912;15.214;2023-02-15T06:43:06;29.90;19.80
34815;DHT22;21030;53.912;15.214;2023-02-15T06:45:34;30.10;19.70
34815;DHT22;21030;53.912;15.214;2023-02-15T06:48:03;30.40;19.70
34815;DHT22;21030;53.912;15.214;2023-02-15T06:50:30;30.60;19.70
34815;DHT22;21030;53.912;15.214;2023-02-15T06:52:58;30.80;19.60
34815;DHT22;21030;53.912;15.214;2023-02-15T06:55:25;30.80;19.50
34815;DHT22;21030;53.912;15.214;2023-02-15T06:57:52;31.00;19.50
34815;DHT22;21030;53.912;15.214;2023-02-15T07:00:19;30.90;19.20
34815;DHT22;21030;53.912;15.214;2023-02-15T07:02:56;31.00;19.30
34815;DHT22;21030;53.912;15.214;2023-02-15T07:05:26;31.50;19.20
34815;DHT22;21030;53.912;15.214;2023-02-15T07:07:58;31.30;18.80
34815;DHT22;21030;53.912;15.214;2023-02-15T07:10:26;31.80;19.00
34815;DHT22;21030;53.912;15.214;2023-02-15T07:12:54;31.90;18.60
34815;DHT22;21030;53.912;15.214;2023-02-15T07:15:21;32.30;18.60
34815;DHT22;21030;53.912;15.214;2023-02-15T07:17:48;32.90;18.40
34815;DHT22;21030;53.912;15.214;2023-02-15T07:20:20;32.90;18.30
34815;DHT22;21030;53.912;15.214;2023-02-15T07:22:49;33.30;18.10
34815;DHT22;21030;53.912;15.214;2023-02-15T07:25:16;33.80;17.80
34815;DHT22;21030;53.912;15.214;2023-02-15T07:27:44;34.00;17.70
34815;DHT22;21030;53.912;15.214;2023-02-15T07:30:14;34.20;17.50
34815;DHT22;21030;53.912;15.214;2023-02-15T07:32:42;34.50;17.40
34815;DHT22;21030;53.912;15.214;2023-02-15T07:35:36;34.50;17.30
34815;DHT22;21030;53.912;15.214;2023-02-15T07:38:03;34.50;17.20
34815;DHT22;21030;53.912;15.214;2023-02-15T07:40:30;34.10;17.30
34815;DHT22;21030;53.912;15.214;2023-02-15T07:42:58;34.10;17.30
34815;DHT22;21030;53.912;15.214;2023-02-15T07:45:26;34.20;17.40
34815;DHT22;21030;53.912;15.214;2023-02-15T07:47:53;33.40;17.50
34815;DHT22;21030;53.912;15.214;2023-02-15T07:50:21;32.40;18.00
34815;DHT22;21030;53.912;15.214;2023-02-15T07:52:48;32.50;18.20
34815;DHT22;21030;53.912;15.214;2023-02-15T07:55:16;32.20;18.40
34815;DHT22;21030;53.912;15.214;2023-02-15T07:57:44;32.30;18.40
34815;DHT22;21030;53.912;15.214;2023-02-15T08:00:14;32.20;18.50
34815;DHT22;21030;53.912;15.214;2023-02-15T08:02:42;31.80;18.20
34815;DHT22;21030;53.912;15.214;2023-02-15T08:05:09;32.00;18.40
34815;DHT22;21030;53.912;15.214;2023-02-15T08:07:37;32.50;18.40
34815;DHT22;21030;53.912;15.214;2023-02-15T08:10:05;32.60;18.20
34815;DHT22;21030;53.912;15.214;2023-02-15T08:12:32;33.10;18.10
34815;DHT22;21030;53.912;15.214;2023-02-15T08:14:59;33.20;18.10
34815;DHT22;21030;53.912;15.214;2023-02-15T08:17:26;33.30;18.00
34815;DHT22;21030;53.912;15.214;2023-02-15T08:19:53;33.40;17.80
34815;DHT22;21030;53.912;15.214;2023-02-15T08:22:20;33.60;17.80
34815;DHT22;21030;53.912;15.214;2023-02-15T08:24:47;33.40;17.70
34815;DHT22;21030;53.912;15.214;2023-02-15T08:27:14;33.70;17.70
34815;DHT22;21030;53.912;15.214;2023-02-15T08:29:42;33.70;17.70
34815;DHT22;21030;53.912;15.214;2023-02-15T08:32:11;34.10;17.60
34815;DHT22;21030;53.912;15.214;2023-02-15T08:34:40;34.20;17.30
34815;DHT22;21030;53.912;15.214;2023-02-15T08:37:08;34.20;17.20
34815;DHT22;21030;53.912;15.214;2023-02-15T08:39:36;35.00;17.30
34815;DHT22;21030;53.912;15.214;2023-02-15T08:42:03;34.60;17.20
34815;DHT22;21030;53.912;15.214;2023-02-15T08:44:31;34.00;17.30
34815;DHT22;21030;53.912;15.214;2023-02-15T08:46:58;33.70;17.40
34815;DHT22;21030;53.912;15.214;2023-02-15T08:49:31;34.00;17.70
34815;DHT22;21030;53.912;15.214;2023-02-15T08:51:58;34.00;17.50
34815;DHT22;21030;53.912;15.214;2023-02-15T08:54:26;34.20;17.40
34815;DHT22;21030;53.912;15.214;2023-02-15T08:56:53;33.60;17.40
34815;DHT22;21030;53.912;15.214;2023-02-15T08:59:22;33.60;17.60
34815;DHT22;21030;53.912;15.214;2023-02-15T09:01:51;33.30;17.40
34815;DHT22;21030;53.912;15.214;2023-02-15T09:04:21;33.50;17.80
34815;DHT22;21030;53.912;15.214;2023-02-15T09:06:50;33.90;17.80
34815;DHT22;21030;53.912;15.214;2023-02-15T09:09:18;34.20;17.90
34815;DHT22;21030;53.912;15.214;2023-02-15T09:11:48;34.50;17.40
34815;DHT22;21030;53.912;15.214;2023-02-15T09:14:21;34.60;17.20
34815;DHT22;21030;53.912;15.214;2023-02-15T09:16:52;35.30;17.20
34815;DHT22;21030;53.912;15.214;2023-02-15T09:19:20;35.50;17.00
34815;DHT22;21030;53.912;15.214;2023-02-15T09:21:48;35.50;16.80
34815;DHT22;21030;53.912;15.214;2023-02-15T09:24:16;35.40;16.80
34815;DHT22;21030;53.912;15.214;2023-02-15T09:26:46;35.80;16.70
34815;DHT22;21030;53.912;15.214;2023-02-15T09:29:14;35.80;16.80
34815;DHT22;21030;53.912;15.214;2023-02-15T09:31:48;35.60;16.60
34815;DHT22;21030;53.912;15.214;2023-02-15T09:34:20;36.20;17.00
34815;DHT22;21030;53.912;15.214;2023-02-15T09:36:48;37.40;16.70
34815;DHT22;21030;53.912;15.214;2023-02-15T09:39:18;37.50;16.40
34815;DHT22;21030;53.912;15.214;2023-02-15T09:47:21;34.90;17.10
34815;DHT22;21030;53.912;15.214;2023-02-15T09:50:22;34.30;17.30
34815;DHT22;21030;53.912;15.214;2023-02-15T09:53:42;34.30;17.60
34815;DHT22;21030;53.912;15.214;2023-02-15T09:55:48;34.40;17.50
34815;DHT22;21030;53.912;15.214;2023-02-15T10:01:15;34.40;17.60
34815;DHT22;21030;53.912;15.214;2023-02-15T10:07:00;33.50;17.90
34815;DHT22;21030;53.912;15.214;2023-02-15T10:15:24;33.50;17.90
34815;DHT22;21030;53.912;15.214;2023-02-15T10:20:36;32.90;18.00
34815;DHT22;21030;53.912;15.214;2023-02-15T10:26:35;31.90;18.90
34815;DHT22;21030;53.912;15.214;2023-02-15T10:34:23;31.90;18.60
34815;DHT22;21030;53.912;15.214;2023-02-15T11:01:42;34.70;17.80
34815;DHT22;21030;53.912;15.214;2023-02-15T11:04:37;35.50;17.60
34815;DHT22;21030;53.912;15.214;2023-02-15T11:09:43;36.50;17.10
34815;DHT22;21030;53.912;15.214;2023-02-15T11:12:16;36.20;16.70
34815;DHT22;21030;53.912;15.214;2023-02-15T11:17:35;36.80;16.90
34815;DHT22;21030;53.912;15.214;2023-02-15T11:20:29;36.60;16.70
34815;DHT22;21030;53.912;15.214;2023-02-15T11:22:57;35.70;17.00
34815;DHT22;21030;53.912;15.214;2023-02-15T11:25:33;35.40;17.30
34815;DHT22;21030;53.912;15.214;2023-02-15T11:28:10;35.30;17.30
34815;DHT22;21030;53.912;15.214;2023-02-15T11:30:43;35.10;17.50
34815;DHT22;21030;53.912;15.214;2023-02-15T11:33:25;35.00;17.50
34815;DHT22;21030;53.912;15.214;2023-02-15T11:36:06;34.30;17.90
34815;DHT22;21030;53.912;15.214;2023-02-15T11:38:34;33.10;18.50
34815;DHT22;21030;53.912;15.214;2023-02-15T11:41:17;32.50;19.00
34815;DHT22;21030;53.912;15.214;2023-02-15T11:44:06;31.60;19.70
34815;DHT22;21030;53.912;15.214;2023-02-15T11:46:36;32.50;19.50
34815;DHT22;21030;53.912;15.214;2023-02-15T11:49:27;32.40;18.90
34815;DHT22;21030;53.912;15.214;2023-02-15T11:51:56;32.30;19.00
34815;DHT22;21030;53.912;15.214;2023-02-15T11:54:30;33.40;18.90
34815;DHT22;21030;53.912;15.214;2023-02-15T11:57:28;33.10;18.70
34815;DHT22;21030;53.912;15.214;2023-02-15T12:02:36;33.40;18.70
34815;DHT22;21030;53.912;15.214;2023-02-15T12:05:11;32.10;19.50
34815;DHT22;21030;53.912;15.214;2023-02-15T12:07:47;32.40;19.40
34815;DHT22;21030;53.912;15.214;2023-02-15T12:10:25;32.80;19.30
34815;DHT22;21030;53.912;15.214;2023-02-15T12:16:27;33.60;18.90
34815;DHT22;21030;53.912;15.214;2023-02-15T12:18:39;34.40;18.80
34815;DHT22;21030;53.912;15.214;2023-02-15T12:21:28;33.00;19.10
34815;DHT22;21030;53.912;15.214;2023-02-15T12:24:10;32.50;19.70
34815;DHT22;21030;53.912;15.214;2023-02-15T12:26:41;32.20;19.90
34815;DHT22;21030;53.912;15.214;2023-02-15T12:29:31;31.30;20.30
34815;DHT22;21030;53.912;15.214;2023-02-15T12:32:01;31.20;20.80
34815;DHT22;21030;53.912;15.214;2023-02-15T12:34:36;32.80;20.30
34815;DHT22;21030;53.912;15.214;2023-02-15T12:37:27;32.50;19.90
34815;DHT22;21030;53.912;15.214;2023-02-15T12:39:58;32.10;19.90
34815;DHT22;21030;53.912;15.214;2023-02-15T12:42:27;31.70;20.60
34815;DHT22;21030;53.912;15.214;2023-02-15T12:45:01;32.50;20.20
34815;DHT22;21030;53.912;15.214;2023-02-15T12:47:30;33.10;19.70
34815;DHT22;21030;53.912;15.214;2023-02-15T12:50:05;32.80;19.70
34815;DHT22;21030;53.912;15.214;2023-02-15T12:52:39;33.10;20.00
34815;DHT22;21030;53.912;15.214;2023-02-15T12:55:22;31.80;20.20
34815;DHT22;21030;53.912;15.214;2023-02-15T12:58:08;31.20;21.20
34815;DHT22;21030;53.912;15.214;2023-02-15T13:00:35;31.10;21.30
34815;DHT22;21030;53.912;15.214;2023-02-15T13:03:04;31.50;21.10
34815;DHT22;21030;53.912;15.214;2023-02-15T13:05:35;30.60;21.60
34815;DHT22;21030;53.912;15.214;2023-02-15T13:08:19;30.60;22.00
34815;DHT22;21030;53.912;15.214;2023-02-15T13:11:04;30.30;22.00
34815;DHT22;21030;53.912;15.214;2023-02-15T13:13:33;29.80;22.50
34815;DHT22;21030;53.912;15.214;2023-02-15T13:16:07;29.40;22.70
34815;DHT22;21030;53.912;15.214;2023-02-15T13:18:46;29.60;22.80
34815;DHT22;21030;53.912;15.214;2023-02-15T13:21:24;30.40;22.60
34815;DHT22;21030;53.912;15.214;2023-02-15T13:23:56;31.50;21.80
34815;DHT22;21030;53.912;15.214;2023-02-15T13:26:25;31.80;21.50
34815;DHT22;21030;53.912;15.214;2023-02-15T13:28:56;31.10;21.40
34815;DHT22;21030;53.912;15.214;2023-02-15T13:31:25;30.50;21.70
34815;DHT22;21030;53.912;15.214;2023-02-15T13:34:14;30.60;22.00
34815;DHT22;21030;53.912;15.214;2023-02-15T13:37:04;30.90;22.20
34815;DHT22;21030;53.912;15.214;2023-02-15T13:39:47;30.30;22.00
34815;DHT22;21030;53.912;15.214;2023-02-15T13:42:23;30.00;22.70
34815;DHT22;21030;53.912;15.214;2023-02-15T13:51:01;30.60;22.20
34815;DHT22;21030;53.912;15.214;2023-02-15T13:54:01;30.20;22.30
34815;DHT22;21030;53.912;15.214;2023-02-15T14:02:40;28.70;23.70
34815;DHT22;21030;53.912;15.214;2023-02-15T14:13:33;29.90;22.90
34815;DHT22;21030;53.912;15.214;2023-02-15T14:16:20;29.60;22.90
34815;DHT22;21030;53.912;15.214;2023-02-15T14:21:57;29.30;23.30
34815;DHT22;21030;53.912;15.214;2023-02-15T14:30:25;29.10;23.00
34815;DHT22;21030;53.912;15.214;2023-02-15T14:35:41;28.50;23.60
34815;DHT22;21030;53.912;15.214;2023-02-15T14:40:57;28.70;23.60
34815;DHT22;21030;53.912;15.214;2023-02-15T14:43:51;29.60;23.30
34815;DHT22;21030;53.912;15.214;2023-02-15T14:46:26;30.40;23.00
34815;DHT22;21030;53.912;15.214;2023-02-15T14:49:46;30.50;22.50
34815;DHT22;21030;53.912;15.214;2023-02-15T14:51:55;30.30;22.50
34815;DHT22;21030;53.912;15.214;2023-02-15T15:02:43;31.50;21.80
34815;DHT22;21030;53.912;15.214;2023-02-15T15:07:58;31.30;21.80
34815;DHT22;21030;53.912;15.214;2023-02-15T15:10:37;31.20;21.90
34815;DHT22;21030;53.912;15.214;2023-02-15T15:15:57;30.80;22.30
34815;DHT22;21030;53.912;15.214;2023-02-15T15:18:46;31.20;22.10
34815;DHT22;21030;53.912;15.214;2023-02-15T15:24:49;30.70;22.30
34815;DHT22;21030;53.912;15.214;2023-02-15T15:41:35;30.30;22.70
34815;DHT22;21030;53.912;15.214;2023-02-15T15:47:24;31.00;22.30
34815;DHT22;21030;53.912;15.214;2023-02-15T15:49:58;31.40;21.80
34815;DHT22;21030;53.912;15.214;2023-02-15T15:52:28;31.70;21.70
34815;DHT22;21030;53.912;15.214;2023-02-15T15:55:04;32.00;21.60
34815;DHT22;21030;53.912;15.214;2023-02-15T15:57:42;32.20;21.40
34815;DHT22;21030;53.912;15.214;2023-02-15T16:00:42;32.50;21.10
34815;DHT22;21030;53.912;15.214;2023-02-15T16:03:24;32.50;21.10
34815;DHT22;21030;53.912;15.214;2023-02-15T16:05:52;32.20;21.20
34815;DHT22;21030;53.912;15.214;2023-02-15T16:08:32;32.30;21.20
34815;DHT22;21030;53.912;15.214;2023-02-15T16:11:11;32.10;21.50
34815;DHT22;21030;53.912;15.214;2023-02-15T16:13:45;32.10;21.30
34815;DHT22;21030;53.912;15.214;2023-02-15T16:16:20;32.50;21.30
34815;DHT22;21030;53.912;15.214;2023-02-15T16:18:48;32.80;21.10
34815;DHT22;21030;53.912;15.214;2023-02-15T16:21:22;33.10;20.90
34815;DHT22;21030;53.912;15.214;2023-02-15T16:23:59;33.30;20.60
34815;DHT22;21030;53.912;15.214;2023-02-15T16:27:05;33.50;20.60
34815;DHT22;21030;53.912;15.214;2023-02-15T16:29:37;33.20;20.60
34815;DHT22;21030;53.912;15.214;2023-02-15T16:32:16;33.10;20.70
34815;DHT22;21030;53.912;15.214;2023-02-15T16:35:01;33.00;20.70
34815;DHT22;21030;53.912;15.214;2023-02-15T16:37:35;32.80;20.70
34815;DHT22;21030;53.912;15.214;2023-02-15T16:40:03;32.80;20.90
34815;DHT22;21030;53.912;15.214;2023-02-15T16:42:31;33.00;20.90
34815;DHT22;21030;53.912;15.214;2023-02-15T16:47:31;32.90;20.80
34815;DHT22;21030;53.912;15.214;2023-02-15T16:50:02;33.00;20.80
34815;DHT22;21030;53.912;15.214;2023-02-15T16:52:31;33.10;20.70
34815;DHT22;21030;53.912;15.214;2023-02-15T16:55:03;33.10;20.90
34815;DHT22;21030;53.912;15.214;2023-02-15T16:57:36;33.10;20.80
34815;DHT22;21030;53.912;15.214;2023-02-15T17:00:07;32.30;20.80
34815;DHT22;21030;53.912;15.214;2023-02-15T17:02:59;32.30;21.20
34815;DHT22;21030;53.912;15.214;2023-02-15T17:05:45;32.60;21.20
34815;DHT22;21030;53.912;15.214;2023-02-15T17:11:08;32.20;21.20
34815;DHT22;21030;53.912;15.214;2023-02-15T17:13:37;31.90;21.20
34815;DHT22;21030;53.912;15.214;2023-02-15T17:18:45;31.90;21.40
34815;DHT22;21030;53.912;15.214;2023-02-15T17:21:25;32.20;21.20
34815;DHT22;21030;53.912;15.214;2023-02-15T17:24:01;32.30;21.20
34815;DHT22;21030;53.912;15.214;2023-02-15T17:26:34;32.50;21.10
34815;DHT22;21030;53.912;15.214;2023-02-15T17:29:11;32.70;21.50
34815;DHT22;21030;53.912;15.214;2023-02-15T17:31:47;32.80;20.90
34815;DHT22;21030;53.912;15.214;2023-02-15T17:37:24;32.30;20.90
34815;DHT22;21030;53.912;15.214;2023-02-15T17:39:52;32.50;21.00
34815;DHT22;21030;53.912;15.214;2023-02-15T17:42:20;31.70;21.20
34815;DHT22;21030;53.912;15.214;2023-02-15T17:44:48;31.20;21.70
34815;DHT22;21030;53.912;15.214;2023-02-15T17:47:18;31.20;22.00
34815;DHT22;21030;53.912;15.214;2023-02-15T17:49:47;30.70;22.10
34815;DHT22;21030;53.912;15.214;2023-02-15T17:52:17;30.20;22.50
34815;DHT22;21030;53.912;15.214;2023-02-15T17:54:44;30.10;22.70
34815;DHT22;21030;53.912;15.214;2023-02-15T17:57:30;29.80;23.10
34815;DHT22;21030;53.912;15.214;2023-02-15T17:59:58;30.00;23.10
34815;DHT22;21030;53.912;15.214;2023-02-15T18:02:46;29.90;23.20
34815;DHT22;21030;53.912;15.214;2023-02-15T18:05:31;29.20;23.40
34815;DHT22;21030;53.912;15.214;2023-02-15T18:08:19;28.60;23.90
34815;DHT22;21030;53.912;15.214;2023-02-15T18:11:09;27.80;25.20
34815;DHT22;21030;53.912;15.214;2023-02-15T18:13:55;27.40;25.20
34815;DHT22;21030;53.912;15.214;2023-02-15T18:16:30;27.20;25.10
34815;DHT22;21030;53.912;15.214;2023-02-15T18:19:01;27.40;25.10
34815;DHT22;21030;53.912;15.214;2023-02-15T18:21:32;27.60;25.10
34815;DHT22;21030;53.912;15.214;2023-02-15T18:23:59;28.10;24.80
34815;DHT22;21030;53.912;15.214;2023-02-15T18:26:27;28.50;24.30
34815;DHT22;21030;53.912;15.214;2023-02-15T18:28:55;29.30;23.80
34815;DHT22;21030;53.912;15.214;2023-02-15T18:31:23;30.20;23.00
34815;DHT22;21030;53.912;15.214;2023-02-15T18:33:55;30.90;22.50
34815;DHT22;21030;53.912;15.214;2023-02-15T18:36:28;31.40;22.20